Robert G. Stone, Jr. — WDD4596 — position and weather

sailwx.info

Track history (hours):
 
Tides and Currents Weather Stations Pressure Air Temp Water Temp Dewpoint Dewpoint Depression Visibility Wind Speed Wind Dir Waves Ship Positions

Robert G. Stone, Jr.

Owner: Kirby Inland Marine, LP, Houston, TX. More information available from US FCC via Universal Licensing System and Coast Guard Vessel Documentation Center.

Last reported at 2015-Apr-27 06:11 UTC. Time now 2015-May-07 05:37 UTC.
Position N 30°40' W 088°02'.
Warning: this ship's position is 9 days out of date.

Length 27 m; draft 3.1 m.

Type: Towing. MMSI: 367146780.

Date/timePositionNaut miles runAvg speedWind from/ knotsBaromVisibWave heightAir tempDewpointWater temp
2015-Apr-27 06:11N 30°40' W 088°02'15 8.0
2015-Apr-27 04:21N 30°26' W 088°01'106 3.4
2015-Apr-25 21:21N 29°55' W 089°59'0 0.0
2015-Apr-25 20:29N 29°55' W 089°59'0 0.0
2015-Apr-25 19:31N 29°55' W 089°59'0 0.0
2015-Apr-25 18:23N 29°55' W 089°59'0 0.0
2015-Apr-25 14:30N 29°55' W 089°59'0 0.0
2015-Apr-25 12:20N 29°55' W 089°59'0 0.0
2015-Apr-25 11:33N 29°55' W 089°59'0 0.0
2015-Apr-25 10:27N 29°55' W 089°59'0 0.0
2015-Apr-25 09:33N 29°55' W 089°59'0 0.0
2015-Apr-25 08:23N 29°55' W 089°59'0 0.0
2015-Apr-25 07:31N 29°55' W 089°59'0 0.0
2015-Apr-25 06:33N 29°55' W 089°59'0 0.0
2015-Apr-25 05:32N 29°55' W 089°59'0 0.0
2015-Apr-25 04:32N 29°55' W 089°59'0 0.0
2015-Apr-25 03:33N 29°55' W 089°59'0 0.0
2015-Apr-25 02:31N 29°55' W 089°59'0 0.0
2015-Apr-25 01:33N 29°55' W 089°59'0 0.0
2015-Apr-25 00:27N 29°55' W 089°59'32 0.8
2015-Apr-23 10:31N 29°33' W 090°25'7 3.3
2015-Apr-23 08:33N 29°34' W 090°32'5 5.4
2015-Apr-23 07:33N 29°35' W 090°38'4 4.0
2015-Apr-23 06:33N 29°37' W 090°42'3 3.3
2015-Apr-23 05:33N 29°34' W 090°44'5 5.1
2015-Apr-23 04:33N 29°32' W 090°50'  
2015-Apr-19 13:06N 29°14' W 095°13'23 0.5
2015-Apr-17 15:33N 29°21' W 094°48'  
Track history (hours):
 
Tides and Currents Weather Stations Pressure Air Temp Water Temp Dewpoint Dewpoint Depression Visibility Wind Speed Wind Dir Waves Ship Positions

Robert G. Stone, Jr.

Owner: Kirby Inland Marine, LP, Houston, TX. More information available from US FCC via Universal Licensing System and Coast Guard Vessel Documentation Center.

Last reported at 2015-Apr-27 06:11 UTC. Time now 2015-May-07 05:37 UTC.
Position N 30°40' W 088°02'.
Warning: this ship's position is 9 days out of date.

Length 27 m; draft 3.1 m.

Type: Towing. MMSI: 367146780.

Date/timePositionNaut miles runAvg speedWind from/ knotsBaromVisibWave heightAir tempDewpointWater temp
2015-Apr-27 06:11N 30°40' W 088°02'15 8.0
2015-Apr-27 04:21N 30°26' W 088°01'106 3.4
2015-Apr-25 21:21N 29°55' W 089°59'0 0.0
2015-Apr-25 20:29N 29°55' W 089°59'0 0.0
2015-Apr-25 19:31N 29°55' W 089°59'0 0.0
2015-Apr-25 18:23N 29°55' W 089°59'0 0.0
2015-Apr-25 14:30N 29°55' W 089°59'0 0.0
2015-Apr-25 12:20N 29°55' W 089°59'0 0.0
2015-Apr-25 11:33N 29°55' W 089°59'0 0.0
2015-Apr-25 10:27N 29°55' W 089°59'0 0.0
2015-Apr-25 09:33N 29°55' W 089°59'0 0.0
2015-Apr-25 08:23N 29°55' W 089°59'0 0.0
2015-Apr-25 07:31N 29°55' W 089°59'0 0.0
2015-Apr-25 06:33N 29°55' W 089°59'0 0.0
2015-Apr-25 05:32N 29°55' W 089°59'0 0.0
2015-Apr-25 04:32N 29°55' W 089°59'0 0.0
2015-Apr-25 03:33N 29°55' W 089°59'0 0.0
2015-Apr-25 02:31N 29°55' W 089°59'0 0.0
2015-Apr-25 01:33N 29°55' W 089°59'0 0.0
2015-Apr-25 00:27N 29°55' W 089°59'32 0.8
2015-Apr-23 10:31N 29°33' W 090°25'7 3.3
2015-Apr-23 08:33N 29°34' W 090°32'5 5.4
2015-Apr-23 07:33N 29°35' W 090°38'4 4.0
2015-Apr-23 06:33N 29°37' W 090°42'3 3.3
2015-Apr-23 05:33N 29°34' W 090°44'5 5.1
2015-Apr-23 04:33N 29°32' W 090°50'  
2015-Apr-19 13:06N 29°14' W 095°13'23 0.5
2015-Apr-17 15:33N 29°21' W 094°48'  

Dump ship's entire track history